sensor_id;sensor_type;location;lat;lon;timestamp;temperature;humidity
24041;DHT22;12246;47.612;18.906;2022-08-03T00:00:40;20.30;99.90
24041;DHT22;12246;47.612;18.906;2022-08-03T00:03:32;20.30;99.90
24041;DHT22;12246;47.612;18.906;2022-08-03T00:06:25;20.40;99.90
24041;DHT22;12246;47.612;18.906;2022-08-03T00:09:17;20.40;99.90
24041;DHT22;12246;47.612;18.906;2022-08-03T00:12:09;20.40;99.90
24041;DHT22;12246;47.612;18.906;2022-08-03T00:15:02;20.30;99.90
24041;DHT22;12246;47.612;18.906;2022-08-03T00:18:01;20.30;99.90
24041;DHT22;12246;47.612;18.906;2022-08-03T00:20:53;20.40;99.90
24041;DHT22;12246;47.612;18.906;2022-08-03T00:23:45;20.30;99.90
24041;DHT22;12246;47.612;18.906;2022-08-03T00:26:43;20.20;99.90
24041;DHT22;12246;47.612;18.906;2022-08-03T00:29:35;20.20;99.90
24041;DHT22;12246;47.612;18.906;2022-08-03T00:32:48;20.10;99.90
24041;DHT22;12246;47.612;18.906;2022-08-03T00:35:40;20.10;99.90
24041;DHT22;12246;47.612;18.906;2022-08-03T00:38:42;20.00;99.90
24041;DHT22;12246;47.612;18.906;2022-08-03T00:41:34;20.10;99.90
24041;DHT22;12246;47.612;18.906;2022-08-03T00:44:26;20.10;99.90
24041;DHT22;12246;47.612;18.906;2022-08-03T00:47:18;20.10;99.90
24041;DHT22;12246;47.612;18.906;2022-08-03T00:50:11;20.00;99.90
24041;DHT22;12246;47.612;18.906;2022-08-03T00:53:04;20.00;99.90
24041;DHT22;12246;47.612;18.906;2022-08-03T00:55:57;20.00;99.90
24041;DHT22;12246;47.612;18.906;2022-08-03T00:58:50;19.90;99.90
24041;DHT22;12246;47.612;18.906;2022-08-03T01:01:43;19.90;99.90
24041;DHT22;12246;47.612;18.906;2022-08-03T01:04:35;19.80;99.90
24041;DHT22;12246;47.612;18.906;2022-08-03T01:10:53;19.90;99.90
24041;DHT22;12246;47.612;18.906;2022-08-03T01:14:18;19.70;99.90
24041;DHT22;12246;47.612;18.906;2022-08-03T01:17:24;19.60;99.90
24041;DHT22;12246;47.612;18.906;2022-08-03T01:20:21;19.70;99.90
24041;DHT22;12246;47.612;18.906;2022-08-03T01:23:51;19.60;99.90
24041;DHT22;12246;47.612;18.906;2022-08-03T01:27:08;19.50;99.90
24041;DHT22;12246;47.612;18.906;2022-08-03T01:30:07;19.50;99.90
24041;DHT22;12246;47.612;18.906;2022-08-03T01:33:05;19.60;99.90
24041;DHT22;12246;47.612;18.906;2022-08-03T01:36:03;19.50;99.90
24041;DHT22;12246;47.612;18.906;2022-08-03T01:39:00;19.50;99.90
24041;DHT22;12246;47.612;18.906;2022-08-03T01:41:59;19.40;99.90
24041;DHT22;12246;47.612;18.906;2022-08-03T01:44:54;19.40;99.90
24041;DHT22;12246;47.612;18.906;2022-08-03T01:47:48;19.40;99.90
24041;DHT22;12246;47.612;18.906;2022-08-03T01:50:41;19.40;99.90
24041;DHT22;12246;47.612;18.906;2022-08-03T01:53:35;19.40;99.90
24041;DHT22;12246;47.612;18.906;2022-08-03T01:56:29;19.50;99.90
24041;DHT22;12246;47.612;18.906;2022-08-03T01:59:22;19.40;99.90
24041;DHT22;12246;47.612;18.906;2022-08-03T02:02:17;19.50;99.90
24041;DHT22;12246;47.612;18.906;2022-08-03T02:05:26;19.40;99.90
24041;DHT22;12246;47.612;18.906;2022-08-03T02:08:19;19.30;99.90
24041;DHT22;12246;47.612;18.906;2022-08-03T02:11:13;19.30;99.90
24041;DHT22;12246;47.612;18.906;2022-08-03T02:14:07;19.30;99.90
24041;DHT22;12246;47.612;18.906;2022-08-03T02:17:00;19.40;99.90
24041;DHT22;12246;47.612;18.906;2022-08-03T02:19:55;19.30;99.90
24041;DHT22;12246;47.612;18.906;2022-08-03T02:22:48;19.40;99.90
24041;DHT22;12246;47.612;18.906;2022-08-03T02:25:45;19.40;99.90
24041;DHT22;12246;47.612;18.906;2022-08-03T02:28:40;19.40;99.90
24041;DHT22;12246;47.612;18.906;2022-08-03T02:31:36;19.40;99.90
24041;DHT22;12246;47.612;18.906;2022-08-03T02:34:32;19.30;99.90
24041;DHT22;12246;47.612;18.906;2022-08-03T02:37:31;19.20;99.90
24041;DHT22;12246;47.612;18.906;2022-08-03T02:40:27;19.20;99.90
24041;DHT22;12246;47.612;18.906;2022-08-03T02:43:22;19.10;99.90
24041;DHT22;12246;47.612;18.906;2022-08-03T02:46:17;19.00;99.90
24041;DHT22;12246;47.612;18.906;2022-08-03T02:49:13;18.90;99.90
24041;DHT22;12246;47.612;18.906;2022-08-03T02:52:29;18.90;99.90
24041;DHT22;12246;47.612;18.906;2022-08-03T02:55:22;18.90;99.90
24041;DHT22;12246;47.612;18.906;2022-08-03T02:58:20;18.90;99.90
24041;DHT22;12246;47.612;18.906;2022-08-03T03:01:13;18.80;99.90
24041;DHT22;12246;47.612;18.906;2022-08-03T03:04:07;18.80;99.90
24041;DHT22;12246;47.612;18.906;2022-08-03T03:07:04;18.80;99.90
24041;DHT22;12246;47.612;18.906;2022-08-03T03:09:59;18.80;99.90
24041;DHT22;12246;47.612;18.906;2022-08-03T03:12:54;18.80;99.90
24041;DHT22;12246;47.612;18.906;2022-08-03T03:15:47;18.80;99.90
24041;DHT22;12246;47.612;18.906;2022-08-03T03:18:42;18.80;99.90
24041;DHT22;12246;47.612;18.906;2022-08-03T03:21:35;18.80;99.90
24041;DHT22;12246;47.612;18.906;2022-08-03T03:24:29;18.70;99.90
24041;DHT22;12246;47.612;18.906;2022-08-03T03:27:21;18.80;99.90
24041;DHT22;12246;47.612;18.906;2022-08-03T03:30:14;18.80;99.90
24041;DHT22;12246;47.612;18.906;2022-08-03T03:33:06;18.80;99.90
24041;DHT22;12246;47.612;18.906;2022-08-03T03:35:59;18.70;99.90
24041;DHT22;12246;47.612;18.906;2022-08-03T03:38:52;18.70;99.90
24041;DHT22;12246;47.612;18.906;2022-08-03T03:41:45;18.90;99.90
24041;DHT22;12246;47.612;18.906;2022-08-03T03:44:37;18.90;99.90
24041;DHT22;12246;47.612;18.906;2022-08-03T03:47:30;18.90;99.90
24041;DHT22;12246;47.612;18.906;2022-08-03T03:50:24;18.80;99.90
24041;DHT22;12246;47.612;18.906;2022-08-03T03:53:16;18.90;99.90
24041;DHT22;12246;47.612;18.906;2022-08-03T03:56:08;19.30;99.90
24041;DHT22;12246;47.612;18.906;2022-08-03T03:59:00;19.80;99.90
24041;DHT22;12246;47.612;18.906;2022-08-03T04:01:53;20.50;99.90
24041;DHT22;12246;47.612;18.906;2022-08-03T04:04:50;21.30;99.90
24041;DHT22;12246;47.612;18.906;2022-08-03T04:08:07;22.00;99.90
24041;DHT22;12246;47.612;18.906;2022-08-03T04:11:19;22.70;99.90
24041;DHT22;12246;47.612;18.906;2022-08-03T04:14:32;23.70;99.90
24041;DHT22;12246;47.612;18.906;2022-08-03T04:17:27;24.50;99.90
24041;DHT22;12246;47.612;18.906;2022-08-03T04:20:20;25.20;99.90
24041;DHT22;12246;47.612;18.906;2022-08-03T04:23:15;25.60;99.90
24041;DHT22;12246;47.612;18.906;2022-08-03T04:26:11;26.30;99.90
24041;DHT22;12246;47.612;18.906;2022-08-03T04:29:05;27.00;99.90
24041;DHT22;12246;47.612;18.906;2022-08-03T04:31:59;27.80;99.90
24041;DHT22;12246;47.612;18.906;2022-08-03T04:34:54;28.40;99.90
24041;DHT22;12246;47.612;18.906;2022-08-03T04:37:51;28.70;99.90
24041;DHT22;12246;47.612;18.906;2022-08-03T04:40:45;28.90;99.90
24041;DHT22;12246;47.612;18.906;2022-08-03T04:43:38;29.50;98.70
24041;DHT22;12246;47.612;18.906;2022-08-03T04:46:36;30.00;97.10
24041;DHT22;12246;47.612;18.906;2022-08-03T04:49:29;30.40;96.50
24041;DHT22;12246;47.612;18.906;2022-08-03T04:52:23;30.70;95.30
24041;DHT22;12246;47.612;18.906;2022-08-03T04:55:29;31.00;94.60
24041;DHT22;12246;47.612;18.906;2022-08-03T04:58:21;31.00;94.30
24041;DHT22;12246;47.612;18.906;2022-08-03T05:01:14;31.10;93.80
24041;DHT22;12246;47.612;18.906;2022-08-03T05:04:07;31.20;93.60
24041;DHT22;12246;47.612;18.906;2022-08-03T05:06:59;31.10;93.40
24041;DHT22;12246;47.612;18.906;2022-08-03T05:10:07;31.10;93.50
24041;DHT22;12246;47.612;18.906;2022-08-03T05:13:07;31.20;93.60
24041;DHT22;12246;47.612;18.906;2022-08-03T05:16:04;31.20;93.90
24041;DHT22;12246;47.612;18.906;2022-08-03T05:18:56;31.10;93.60
24041;DHT22;12246;47.612;18.906;2022-08-03T05:21:48;31.00;93.60
24041;DHT22;12246;47.612;18.906;2022-08-03T05:24:43;30.90;94.20
24041;DHT22;12246;47.612;18.906;2022-08-03T05:27:36;30.80;94.60
24041;DHT22;12246;47.612;18.906;2022-08-03T05:30:28;30.70;94.70
24041;DHT22;12246;47.612;18.906;2022-08-03T05:33:25;30.60;94.70
24041;DHT22;12246;47.612;18.906;2022-08-03T05:36:17;30.70;94.60
24041;DHT22;12246;47.612;18.906;2022-08-03T05:39:09;30.40;95.30
24041;DHT22;12246;47.612;18.906;2022-08-03T05:42:02;30.20;95.30
24041;DHT22;12246;47.612;18.906;2022-08-03T05:44:54;30.10;94.90
24041;DHT22;12246;47.612;18.906;2022-08-03T05:47:46;30.10;96.20
24041;DHT22;12246;47.612;18.906;2022-08-03T05:50:38;30.40;95.90
24041;DHT22;12246;47.612;18.906;2022-08-03T05:53:34;30.40;95.40
24041;DHT22;12246;47.612;18.906;2022-08-03T05:56:26;30.50;96.30
24041;DHT22;12246;47.612;18.906;2022-08-03T05:59:18;30.80;94.90
24041;DHT22;12246;47.612;18.906;2022-08-03T06:02:29;31.00;94.90
24041;DHT22;12246;47.612;18.906;2022-08-03T06:05:21;31.00;94.60
24041;DHT22;12246;47.612;18.906;2022-08-03T06:08:14;31.20;95.00
24041;DHT22;12246;47.612;18.906;2022-08-03T06:11:06;31.60;94.80
24041;DHT22;12246;47.612;18.906;2022-08-03T06:13:59;31.70;93.40
24041;DHT22;12246;47.612;18.906;2022-08-03T06:16:51;31.20;94.10
24041;DHT22;12246;47.612;18.906;2022-08-03T06:19:43;31.10;93.70
24041;DHT22;12246;47.612;18.906;2022-08-03T06:22:35;31.30;92.90
24041;DHT22;12246;47.612;18.906;2022-08-03T06:25:41;31.50;92.90
24041;DHT22;12246;47.612;18.906;2022-08-03T06:28:33;31.10;92.90
24041;DHT22;12246;47.612;18.906;2022-08-03T06:31:44;31.00;93.30
24041;DHT22;12246;47.612;18.906;2022-08-03T06:34:37;30.60;94.50
24041;DHT22;12246;47.612;18.906;2022-08-03T06:37:29;30.40;92.50
24041;DHT22;12246;47.612;18.906;2022-08-03T06:40:22;29.90;92.20
24041;DHT22;12246;47.612;18.906;2022-08-03T06:43:22;29.90;92.20
24041;DHT22;12246;47.612;18.906;2022-08-03T06:46:14;29.50;92.60
24041;DHT22;12246;47.612;18.906;2022-08-03T06:49:07;29.80;93.20
24041;DHT22;12246;47.612;18.906;2022-08-03T06:51:59;29.60;93.10
24041;DHT22;12246;47.612;18.906;2022-08-03T06:54:57;29.40;93.40
24041;DHT22;12246;47.612;18.906;2022-08-03T06:57:50;29.30;93.80
24041;DHT22;12246;47.612;18.906;2022-08-03T07:00:42;29.40;93.30
24041;DHT22;12246;47.612;18.906;2022-08-03T07:03:34;29.20;92.90
24041;DHT22;12246;47.612;18.906;2022-08-03T07:06:42;29.10;93.70
24041;DHT22;12246;47.612;18.906;2022-08-03T07:09:35;28.90;93.70
24041;DHT22;12246;47.612;18.906;2022-08-03T07:12:28;28.50;94.10
24041;DHT22;12246;47.612;18.906;2022-08-03T07:15:20;28.60;94.30
24041;DHT22;12246;47.612;18.906;2022-08-03T07:18:33;28.90;93.40
24041;DHT22;12246;47.612;18.906;2022-08-03T07:21:28;28.60;94.80
24041;DHT22;12246;47.612;18.906;2022-08-03T07:24:20;28.90;94.00
24041;DHT22;12246;47.612;18.906;2022-08-03T07:27:15;28.70;93.30
24041;DHT22;12246;47.612;18.906;2022-08-03T07:30:07;29.10;93.20
24041;DHT22;12246;47.612;18.906;2022-08-03T07:33:00;29.30;93.30
24041;DHT22;12246;47.612;18.906;2022-08-03T07:35:52;29.10;92.80
24041;DHT22;12246;47.612;18.906;2022-08-03T07:38:45;28.80;93.00
24041;DHT22;12246;47.612;18.906;2022-08-03T07:41:37;28.70;93.40
24041;DHT22;12246;47.612;18.906;2022-08-03T07:44:32;28.80;93.20
24041;DHT22;12246;47.612;18.906;2022-08-03T07:47:28;28.60;93.30
24041;DHT22;12246;47.612;18.906;2022-08-03T07:50:26;28.60;93.50
24041;DHT22;12246;47.612;18.906;2022-08-03T07:53:18;28.40;93.40
24041;DHT22;12246;47.612;18.906;2022-08-03T07:56:11;29.50;93.60
24041;DHT22;12246;47.612;18.906;2022-08-03T07:59:03;30.40;92.10
24041;DHT22;12246;47.612;18.906;2022-08-03T08:01:55;30.20;91.00
24041;DHT22;12246;47.612;18.906;2022-08-03T08:04:47;29.70;91.90
24041;DHT22;12246;47.612;18.906;2022-08-03T08:07:40;30.30;91.40
24041;DHT22;12246;47.612;18.906;2022-08-03T08:10:32;30.60;90.60
24041;DHT22;12246;47.612;18.906;2022-08-03T08:13:24;30.80;91.50
24041;DHT22;12246;47.612;18.906;2022-08-03T08:16:17;30.90;91.20
24041;DHT22;12246;47.612;18.906;2022-08-03T08:19:09;30.80;90.40
24041;DHT22;12246;47.612;18.906;2022-08-03T08:22:03;30.90;91.40
24041;DHT22;12246;47.612;18.906;2022-08-03T08:24:58;30.70;91.10
24041;DHT22;12246;47.612;18.906;2022-08-03T08:27:52;30.70;90.10
24041;DHT22;12246;47.612;18.906;2022-08-03T08:31:04;30.60;89.50
24041;DHT22;12246;47.612;18.906;2022-08-03T08:33:57;31.00;90.50
24041;DHT22;12246;47.612;18.906;2022-08-03T08:36:55;31.10;90.10
24041;DHT22;12246;47.612;18.906;2022-08-03T08:39:47;31.10;87.10
24041;DHT22;12246;47.612;18.906;2022-08-03T08:42:40;31.20;87.70
24041;DHT22;12246;47.612;18.906;2022-08-03T08:45:50;31.30;87.80
24041;DHT22;12246;47.612;18.906;2022-08-03T08:48:43;31.60;85.20
24041;DHT22;12246;47.612;18.906;2022-08-03T08:51:39;32.00;85.60
24041;DHT22;12246;47.612;18.906;2022-08-03T08:54:57;32.30;82.60
24041;DHT22;12246;47.612;18.906;2022-08-03T08:58:01;32.50;82.00
24041;DHT22;12246;47.612;18.906;2022-08-03T09:00:56;32.90;82.00
24041;DHT22;12246;47.612;18.906;2022-08-03T09:03:49;32.90;81.40
24041;DHT22;12246;47.612;18.906;2022-08-03T09:06:41;33.10;80.50
24041;DHT22;12246;47.612;18.906;2022-08-03T09:09:53;32.70;81.30
24041;DHT22;12246;47.612;18.906;2022-08-03T09:13:04;32.90;80.50
24041;DHT22;12246;47.612;18.906;2022-08-03T09:19:12;33.40;77.30
24041;DHT22;12246;47.612;18.906;2022-08-03T09:25:05;33.30;78.90
24041;DHT22;12246;47.612;18.906;2022-08-03T09:28:18;33.00;78.50
24041;DHT22;12246;47.612;18.906;2022-08-03T09:31:39;32.20;78.20
24041;DHT22;12246;47.612;18.906;2022-08-03T09:34:35;32.40;81.60
24041;DHT22;12246;47.612;18.906;2022-08-03T09:37:27;33.00;77.90
24041;DHT22;12246;47.612;18.906;2022-08-03T09:40:41;33.40;77.90
24041;DHT22;12246;47.612;18.906;2022-08-03T09:43:44;32.90;77.00
24041;DHT22;12246;47.612;18.906;2022-08-03T09:46:54;32.20;78.10
24041;DHT22;12246;47.612;18.906;2022-08-03T09:49:58;32.20;78.00
24041;DHT22;12246;47.612;18.906;2022-08-03T09:52:52;32.20;78.40
24041;DHT22;12246;47.612;18.906;2022-08-03T09:59:03;32.60;78.30
24041;DHT22;12246;47.612;18.906;2022-08-03T10:01:57;32.50;78.10
24041;DHT22;12246;47.612;18.906;2022-08-03T10:04:51;32.70;79.40
24041;DHT22;12246;47.612;18.906;2022-08-03T10:07:48;32.90;77.80
24041;DHT22;12246;47.612;18.906;2022-08-03T10:10:42;33.10;77.00
24041;DHT22;12246;47.612;18.906;2022-08-03T10:13:35;33.00;77.30
24041;DHT22;12246;47.612;18.906;2022-08-03T10:16:33;32.90;78.50
24041;DHT22;12246;47.612;18.906;2022-08-03T10:19:26;32.70;74.20
24041;DHT22;12246;47.612;18.906;2022-08-03T10:22:21;32.20;77.60
24041;DHT22;12246;47.612;18.906;2022-08-03T10:25:15;32.30;77.30
24041;DHT22;12246;47.612;18.906;2022-08-03T10:28:12;32.80;76.90
24041;DHT22;12246;47.612;18.906;2022-08-03T10:31:05;32.60;74.80
24041;DHT22;12246;47.612;18.906;2022-08-03T10:34:00;32.60;76.10
24041;DHT22;12246;47.612;18.906;2022-08-03T10:36:56;32.90;76.60
24041;DHT22;12246;47.612;18.906;2022-08-03T10:39:50;32.50;73.80
24041;DHT22;12246;47.612;18.906;2022-08-03T10:42:46;32.40;75.60
24041;DHT22;12246;47.612;18.906;2022-08-03T10:45:41;32.00;74.40
24041;DHT22;12246;47.612;18.906;2022-08-03T10:48:34;31.90;75.20
24041;DHT22;12246;47.612;18.906;2022-08-03T10:51:27;32.10;74.70
24041;DHT22;12246;47.612;18.906;2022-08-03T10:54:43;32.10;73.70
24041;DHT22;12246;47.612;18.906;2022-08-03T10:57:58;32.10;75.00
24041;DHT22;12246;47.612;18.906;2022-08-03T11:00:51;32.10;72.90
24041;DHT22;12246;47.612;18.906;2022-08-03T11:07:18;31.30;75.20
24041;DHT22;12246;47.612;18.906;2022-08-03T11:10:29;30.90;76.20
24041;DHT22;12246;47.612;18.906;2022-08-03T11:13:24;31.20;72.80
24041;DHT22;12246;47.612;18.906;2022-08-03T11:16:19;31.30;73.70
24041;DHT22;12246;47.612;18.906;2022-08-03T11:19:15;30.50;74.60
24041;DHT22;12246;47.612;18.906;2022-08-03T11:22:08;30.30;74.70
24041;DHT22;12246;47.612;18.906;2022-08-03T11:25:04;30.90;74.10
24041;DHT22;12246;47.612;18.906;2022-08-03T11:28:26;30.80;73.60
24041;DHT22;12246;47.612;18.906;2022-08-03T11:35:06;30.30;73.00
24041;DHT22;12246;47.612;18.906;2022-08-03T11:40:55;30.80;70.10
24041;DHT22;12246;47.612;18.906;2022-08-03T11:43:48;31.00;73.80
24041;DHT22;12246;47.612;18.906;2022-08-03T11:46:40;31.50;75.70
24041;DHT22;12246;47.612;18.906;2022-08-03T11:49:33;31.70;75.80
24041;DHT22;12246;47.612;18.906;2022-08-03T11:52:27;32.20;77.40
24041;DHT22;12246;47.612;18.906;2022-08-03T11:55:25;32.40;75.70
24041;DHT22;12246;47.612;18.906;2022-08-03T11:58:22;32.70;73.90
24041;DHT22;12246;47.612;18.906;2022-08-03T12:01:34;32.80;73.40
24041;DHT22;12246;47.612;18.906;2022-08-03T12:04:27;32.70;73.30
24041;DHT22;12246;47.612;18.906;2022-08-03T12:07:19;32.70;74.50
24041;DHT22;12246;47.612;18.906;2022-08-03T12:10:32;32.70;71.20
24041;DHT22;12246;47.612;18.906;2022-08-03T12:13:24;32.30;71.90
24041;DHT22;12246;47.612;18.906;2022-08-03T12:16:37;32.30;71.70
24041;DHT22;12246;47.612;18.906;2022-08-03T12:19:41;32.40;71.70
24041;DHT22;12246;47.612;18.906;2022-08-03T12:22:38;32.40;72.20
24041;DHT22;12246;47.612;18.906;2022-08-03T12:25:33;32.50;68.80
24041;DHT22;12246;47.612;18.906;2022-08-03T12:28:31;32.50;70.50
24041;DHT22;12246;47.612;18.906;2022-08-03T12:31:29;32.70;70.60
24041;DHT22;12246;47.612;18.906;2022-08-03T12:34:22;32.70;70.10
24041;DHT22;12246;47.612;18.906;2022-08-03T12:37:21;32.30;65.80
24041;DHT22;12246;47.612;18.906;2022-08-03T12:40:24;32.10;69.00
24041;DHT22;12246;47.612;18.906;2022-08-03T12:43:19;31.90;68.30
24041;DHT22;12246;47.612;18.906;2022-08-03T12:46:13;32.10;68.10
24041;DHT22;12246;47.612;18.906;2022-08-03T12:49:08;31.90;68.20
24041;DHT22;12246;47.612;18.906;2022-08-03T12:52:02;31.80;67.90
24041;DHT22;12246;47.612;18.906;2022-08-03T12:54:59;31.90;67.90
24041;DHT22;12246;47.612;18.906;2022-08-03T12:57:52;32.00;68.40
24041;DHT22;12246;47.612;18.906;2022-08-03T13:00:54;32.00;67.40
24041;DHT22;12246;47.612;18.906;2022-08-03T13:03:48;32.10;66.40
24041;DHT22;12246;47.612;18.906;2022-08-03T13:06:43;31.80;66.60
24041;DHT22;12246;47.612;18.906;2022-08-03T13:09:55;31.50;67.00
24041;DHT22;12246;47.612;18.906;2022-08-03T13:12:48;31.10;69.50
24041;DHT22;12246;47.612;18.906;2022-08-03T13:15:41;31.00;67.60
24041;DHT22;12246;47.612;18.906;2022-08-03T13:18:39;30.80;68.30
24041;DHT22;12246;47.612;18.906;2022-08-03T13:21:31;30.60;69.00
24041;DHT22;12246;47.612;18.906;2022-08-03T13:24:24;30.70;69.50
24041;DHT22;12246;47.612;18.906;2022-08-03T13:27:16;30.70;69.30
24041;DHT22;12246;47.612;18.906;2022-08-03T13:30:29;30.60;69.60
24041;DHT22;12246;47.612;18.906;2022-08-03T13:33:21;30.40;71.60
24041;DHT22;12246;47.612;18.906;2022-08-03T13:36:15;30.40;71.10
24041;DHT22;12246;47.612;18.906;2022-08-03T13:39:08;30.40;69.40
24041;DHT22;12246;47.612;18.906;2022-08-03T13:42:05;30.40;71.20
24041;DHT22;12246;47.612;18.906;2022-08-03T13:44:58;30.30;70.80
24041;DHT22;12246;47.612;18.906;2022-08-03T13:47:50;30.30;70.00
24041;DHT22;12246;47.612;18.906;2022-08-03T13:50:42;30.10;71.70
24041;DHT22;12246;47.612;18.906;2022-08-03T13:53:35;30.20;72.60
24041;DHT22;12246;47.612;18.906;2022-08-03T13:56:27;30.10;72.80
24041;DHT22;12246;47.612;18.906;2022-08-03T13:59:23;30.10;73.00
24041;DHT22;12246;47.612;18.906;2022-08-03T14:02:16;30.10;72.70
24041;DHT22;12246;47.612;18.906;2022-08-03T14:05:08;30.00;73.20
24041;DHT22;12246;47.612;18.906;2022-08-03T14:08:01;30.10;71.30
24041;DHT22;12246;47.612;18.906;2022-08-03T14:10:56;30.10;72.70
24041;DHT22;12246;47.612;18.906;2022-08-03T14:13:49;30.10;71.30
24041;DHT22;12246;47.612;18.906;2022-08-03T14:16:41;30.20;72.00
24041;DHT22;12246;47.612;18.906;2022-08-03T14:19:36;30.30;70.10
24041;DHT22;12246;47.612;18.906;2022-08-03T14:22:44;30.30;69.20
24041;DHT22;12246;47.612;18.906;2022-08-03T14:25:36;30.40;68.70
24041;DHT22;12246;47.612;18.906;2022-08-03T14:28:42;30.60;70.00
24041;DHT22;12246;47.612;18.906;2022-08-03T14:31:36;30.80;71.60
24041;DHT22;12246;47.612;18.906;2022-08-03T14:34:48;30.90;69.90
24041;DHT22;12246;47.612;18.906;2022-08-03T14:37:40;30.90;70.50
24041;DHT22;12246;47.612;18.906;2022-08-03T14:40:32;30.80;72.20
24041;DHT22;12246;47.612;18.906;2022-08-03T14:43:25;30.60;71.60
24041;DHT22;12246;47.612;18.906;2022-08-03T14:46:25;30.40;72.30
24041;DHT22;12246;47.612;18.906;2022-08-03T14:49:17;30.20;71.80
24041;DHT22;12246;47.612;18.906;2022-08-03T14:52:30;30.20;71.20
24041;DHT22;12246;47.612;18.906;2022-08-03T14:55:22;30.00;71.40
24041;DHT22;12246;47.612;18.906;2022-08-03T14:58:15;30.00;71.70
24041;DHT22;12246;47.612;18.906;2022-08-03T15:01:11;29.90;71.30
24041;DHT22;12246;47.612;18.906;2022-08-03T15:04:23;29.90;72.00
24041;DHT22;12246;47.612;18.906;2022-08-03T15:07:16;30.00;71.60
24041;DHT22;12246;47.612;18.906;2022-08-03T15:10:08;30.00;71.20
24041;DHT22;12246;47.612;18.906;2022-08-03T15:13:01;30.00;69.40
24041;DHT22;12246;47.612;18.906;2022-08-03T15:15:53;30.20;70.10
24041;DHT22;12246;47.612;18.906;2022-08-03T15:18:45;30.30;70.30
24041;DHT22;12246;47.612;18.906;2022-08-03T15:21:38;30.30;68.50
24041;DHT22;12246;47.612;18.906;2022-08-03T15:24:38;30.30;69.10
24041;DHT22;12246;47.612;18.906;2022-08-03T15:27:30;30.50;68.30
24041;DHT22;12246;47.612;18.906;2022-08-03T15:30:22;30.60;67.70
24041;DHT22;12246;47.612;18.906;2022-08-03T15:33:15;30.70;66.80
24041;DHT22;12246;47.612;18.906;2022-08-03T15:36:07;30.60;66.60
24041;DHT22;12246;47.612;18.906;2022-08-03T15:38:59;30.60;67.10
24041;DHT22;12246;47.612;18.906;2022-08-03T15:41:51;30.50;66.90
24041;DHT22;12246;47.612;18.906;2022-08-03T15:44:44;30.50;64.60
24041;DHT22;12246;47.612;18.906;2022-08-03T15:47:36;30.40;67.40
24041;DHT22;12246;47.612;18.906;2022-08-03T15:50:28;30.30;65.20
24041;DHT22;12246;47.612;18.906;2022-08-03T15:53:20;30.20;68.10
24041;DHT22;12246;47.612;18.906;2022-08-03T15:56:12;30.20;67.10
24041;DHT22;12246;47.612;18.906;2022-08-03T15:59:10;30.20;68.70
24041;DHT22;12246;47.612;18.906;2022-08-03T16:02:05;30.20;66.70
24041;DHT22;12246;47.612;18.906;2022-08-03T16:04:57;30.20;68.30
24041;DHT22;12246;47.612;18.906;2022-08-03T16:07:49;30.20;67.80
24041;DHT22;12246;47.612;18.906;2022-08-03T16:10:56;30.10;66.20
24041;DHT22;12246;47.612;18.906;2022-08-03T16:13:50;30.10;67.80
24041;DHT22;12246;47.612;18.906;2022-08-03T16:17:02;30.10;67.80
24041;DHT22;12246;47.612;18.906;2022-08-03T16:19:55;30.00;70.40
24041;DHT22;12246;47.612;18.906;2022-08-03T16:22:48;30.00;69.10
24041;DHT22;12246;47.612;18.906;2022-08-03T16:25:41;29.90;69.10
24041;DHT22;12246;47.612;18.906;2022-08-03T16:28:40;29.80;68.20
24041;DHT22;12246;47.612;18.906;2022-08-03T16:31:32;29.80;67.60
24041;DHT22;12246;47.612;18.906;2022-08-03T16:34:25;29.80;68.40
24041;DHT22;12246;47.612;18.906;2022-08-03T16:37:17;29.70;68.10
24041;DHT22;12246;47.612;18.906;2022-08-03T16:40:29;29.70;67.90
24041;DHT22;12246;47.612;18.906;2022-08-03T16:43:21;29.70;67.80
24041;DHT22;12246;47.612;18.906;2022-08-03T16:46:15;29.80;68.00
24041;DHT22;12246;47.612;18.906;2022-08-03T16:49:08;29.70;69.40
24041;DHT22;12246;47.612;18.906;2022-08-03T16:52:00;29.70;68.90
24041;DHT22;12246;47.612;18.906;2022-08-03T16:54:53;29.50;71.10
24041;DHT22;12246;47.612;18.906;2022-08-03T16:57:45;29.50;73.30
24041;DHT22;12246;47.612;18.906;2022-08-03T17:00:50;29.40;71.30
24041;DHT22;12246;47.612;18.906;2022-08-03T17:03:49;29.30;71.60
24041;DHT22;12246;47.612;18.906;2022-08-03T17:06:54;29.20;73.20
24041;DHT22;12246;47.612;18.906;2022-08-03T17:09:47;29.10;74.00
24041;DHT22;12246;47.612;18.906;2022-08-03T17:12:40;28.90;74.10
24041;DHT22;12246;47.612;18.906;2022-08-03T17:15:32;28.80;75.90
24041;DHT22;12246;47.612;18.906;2022-08-03T17:18:54;28.70;77.00
24041;DHT22;12246;47.612;18.906;2022-08-03T17:22:12;28.60;77.60
24041;DHT22;12246;47.612;18.906;2022-08-03T17:25:08;28.60;76.90
24041;DHT22;12246;47.612;18.906;2022-08-03T17:28:13;28.50;77.50
24041;DHT22;12246;47.612;18.906;2022-08-03T17:31:27;28.50;76.20
24041;DHT22;12246;47.612;18.906;2022-08-03T17:34:23;28.40;77.10
24041;DHT22;12246;47.612;18.906;2022-08-03T17:37:20;28.30;77.60
24041;DHT22;12246;47.612;18.906;2022-08-03T17:40:33;28.20;78.10
24041;DHT22;12246;47.612;18.906;2022-08-03T17:43:28;28.20;75.70
24041;DHT22;12246;47.612;18.906;2022-08-03T17:46:41;28.20;76.30
24041;DHT22;12246;47.612;18.906;2022-08-03T17:49:34;28.20;76.60
24041;DHT22;12246;47.612;18.906;2022-08-03T17:52:39;28.20;76.10
24041;DHT22;12246;47.612;18.906;2022-08-03T17:55:40;28.10;76.20
24041;DHT22;12246;47.612;18.906;2022-08-03T17:59:15;28.20;76.10
24041;DHT22;12246;47.612;18.906;2022-08-03T18:06:06;27.90;80.00
24041;DHT22;12246;47.612;18.906;2022-08-03T18:09:05;27.70;80.60
24041;DHT22;12246;47.612;18.906;2022-08-03T18:12:25;27.40;82.00
24041;DHT22;12246;47.612;18.906;2022-08-03T18:15:36;27.30;82.30
24041;DHT22;12246;47.612;18.906;2022-08-03T18:18:39;27.10;84.40
24041;DHT22;12246;47.612;18.906;2022-08-03T18:21:35;27.00;84.80
24041;DHT22;12246;47.612;18.906;2022-08-03T18:24:48;26.80;85.60
24041;DHT22;12246;47.612;18.906;2022-08-03T18:27:42;26.70;86.10
24041;DHT22;12246;47.612;18.906;2022-08-03T18:30:41;26.50;86.70
24041;DHT22;12246;47.612;18.906;2022-08-03T18:33:46;26.40;87.00
24041;DHT22;12246;47.612;18.906;2022-08-03T18:36:59;26.20;87.40
24041;DHT22;12246;47.612;18.906;2022-08-03T18:39:59;26.10;87.70
24041;DHT22;12246;47.612;18.906;2022-08-03T18:42:52;26.00;88.10
24041;DHT22;12246;47.612;18.906;2022-08-03T18:45:50;25.70;88.90